Time;durP1;ratioP1;P1;durP2;ratioP2;P2;SDS_P1;SDS_P2;PMS_P1;PMS_P2;Temp;Humidity;BMP_temperature;BMP_pressure;BME280_temperature;BME280_humidity;BME280_pressure;Samples;Min_cycle;Max_cycle;Signal;HPM_P1;HPM_P2
2021/05/04 00:01:39;;;;;;;0.60;0.20;;;;;;;9.48;42.09;98104.56;5052862;28;20095;-62
2021/05/04 00:04:05;;;;;;;0.50;0.50;;;;;;;9.36;42.52;98084.47;5052804;28;20028;-63
2021/05/04 00:06:31;;;;;;;0.73;0.50;;;;;;;9.32;42.39;98093.81;5053207;28;20052;-63
2021/05/04 00:08:56;;;;;;;0.30;0.20;;;;;;;9.34;42.93;98103.31;5052624;28;20059;-62
2021/05/04 00:11:22;;;;;;;0.43;0.30;;;;;;;9.23;43.08;98084.91;5052856;28;20873;-62
2021/05/04 00:13:48;;;;;;;0.80;0.47;;;;;;;9.21;43.08;98089.56;5052736;28;20473;-62
2021/05/04 00:16:13;;;;;;;1.45;0.30;;;;;;;9.27;42.94;98102.28;5052652;28;20453;-62
2021/05/04 00:18:39;;;;;;;1.67;0.40;;;;;;;9.24;43.03;98085.72;5052328;28;20077;-62
2021/05/04 00:21:04;;;;;;;1.02;0.43;;;;;;;9.16;43.27;98075.81;5067120;28;20025;-61
2021/05/04 00:23:30;;;;;;;0.57;0.40;;;;;;;8.64;43.52;97992.13;5052591;28;20140;-62
2021/05/04 00:26:07;;;;;;;0.68;0.40;;;;;;;8.99;43.06;98045.53;5051453;28;20040;-62
2021/05/04 00:28:33;;;;;;;0.52;0.40;;;;;;;8.88;43.58;98050.16;5052725;28;20044;-62
2021/05/04 00:30:58;;;;;;;1.77;0.35;;;;;;;8.93;43.46;98048.84;5052606;28;20033;-62
2021/05/04 00:33:24;;;;;;;1.20;0.32;;;;;;;9.04;43.78;98061.91;5052393;28;20067;-62
2021/05/04 00:35:50;;;;;;;0.65;0.40;;;;;;;9.07;43.51;98063.44;5058792;28;20029;-60
2021/05/04 00:38:15;;;;;;;3.92;0.50;;;;;;;9.07;43.57;98069.63;5069853;28;20070;-63
2021/05/04 00:40:42;;;;;;;1.42;0.90;;;;;;;9.07;43.59;98064.28;5067871;28;20044;-62
2021/05/04 00:43:07;;;;;;;0.50;0.40;;;;;;;9.01;43.49;98057.75;5050297;28;20063;-61
2021/05/04 00:45:33;;;;;;;0.40;0.40;;;;;;;9.01;43.73;98063.09;5049916;28;20086;-62
2021/05/04 00:47:58;;;;;;;0.40;0.40;;;;;;;9.12;43.55;98067.31;5049539;28;20127;-61
2021/05/04 00:50:24;;;;;;;0.50;0.40;;;;;;;8.96;43.55;98044.03;5050252;28;20148;-61
2021/05/04 00:52:51;;;;;;;0.70;0.45;;;;;;;9.17;43.14;98058.84;5050362;28;20035;-62
2021/05/04 00:55:17;;;;;;;0.30;0.30;;;;;;;9.22;42.93;98061.88;5051843;28;20045;-61
2021/05/04 00:57:43;;;;;;;0.60;0.40;;;;;;;9.14;42.90;98045.78;5051559;28;20048;-61
2021/05/04 01:00:11;;;;;;;0.75;0.40;;;;;;;9.00;43.04;98045.38;5051936;28;20512;-62
2021/05/04 01:02:40;;;;;;;1.08;0.40;;;;;;;8.74;43.62;98032.03;5051811;28;20033;-62
2021/05/04 01:05:09;;;;;;;0.50;0.50;;;;;;;8.63;44.14;98048.31;5051757;28;20467;-61
2021/05/04 01:07:36;;;;;;;0.85;0.30;;;;;;;8.48;43.98;98039.00;5051889;28;20029;-62
2021/05/04 01:10:02;;;;;;;1.00;0.38;;;;;;;8.20;44.22;98016.94;5051602;28;21079;-62
2021/05/04 01:12:27;;;;;;;0.40;0.40;;;;;;;8.17;44.47;98026.06;5051753;28;20431;-62
2021/05/04 01:14:53;;;;;;;0.95;0.40;;;;;;;8.06;44.79;98031.63;5051443;28;20025;-61
2021/05/04 01:17:18;;;;;;;0.85;0.30;;;;;;;7.55;45.21;97972.69;5051062;28;20041;-61
2021/05/04 01:19:44;;;;;;;1.02;0.40;;;;;;;7.80;45.05;98024.41;5051378;28;20419;-63
2021/05/04 01:22:09;;;;;;;0.50;0.40;;;;;;;7.75;45.23;98016.03;5051646;28;20036;-62
2021/05/04 01:24:44;;;;;;;0.65;0.40;;;;;;;7.69;45.33;98017.44;5051278;28;20103;-62
2021/05/04 01:27:16;;;;;;;0.30;0.30;;;;;;;7.64;45.51;98013.56;5051200;28;20080;-62
2021/05/04 01:29:42;;;;;;;0.43;0.32;;;;;;;7.56;45.37;98007.16;5051039;28;20500;-62
2021/05/04 01:32:09;;;;;;;0.47;0.30;;;;;;;7.49;45.79;98005.25;5050866;28;20583;-61
2021/05/04 01:34:35;;;;;;;1.15;0.38;;;;;;;7.48;45.91;98004.41;5051174;28;20040;-63
2021/05/04 01:37:01;;;;;;;0.45;0.40;;;;;;;7.55;45.95;98010.81;5059153;28;20032;-63
2021/05/04 01:39:47;;;;;;;0.70;0.50;;;;;;;7.76;45.62;97999.03;5069196;28;20040;-63
2021/05/04 01:42:13;;;;;;;2.05;0.50;;;;;;;7.82;45.34;97994.91;5069176;28;20527;-62
2021/05/04 01:44:39;;;;;;;1.85;0.30;;;;;;;7.83;45.00;97981.47;5070808;28;20037;-62
2021/05/04 01:47:05;;;;;;;0.85;0.28;;;;;;;8.04;44.39;97997.13;5071396;28;20032;-62
2021/05/04 01:49:32;;;;;;;0.40;0.40;;;;;;;7.80;44.56;97947.13;5070607;28;20437;-62
2021/05/04 01:51:58;;;;;;;1.52;0.40;;;;;;;8.31;44.41;98007.84;5058385;28;20029;-62
2021/05/04 01:54:25;;;;;;;0.45;0.40;;;;;;;8.36;44.00;98005.56;5048640;28;20120;-62
2021/05/04 01:56:52;;;;;;;2.10;0.40;;;;;;;8.41;43.69;98005.94;5048379;28;20125;-63
2021/05/04 01:59:18;;;;;;;0.60;0.30;;;;;;;8.38;43.62;97987.56;5048458;28;20036;-62
2021/05/04 02:01:43;;;;;;;4.00;0.28;;;;;;;8.42;43.71;97991.59;5048479;28;20029;-61
2021/05/04 02:04:09;;;;;;;1.88;0.30;;;;;;;8.43;43.86;97987.94;5048595;28;20040;-62
2021/05/04 02:06:34;;;;;;;0.30;0.30;;;;;;;8.46;43.97;97990.31;5048641;28;20493;-61
2021/05/04 02:09:00;;;;;;;0.50;0.50;;;;;;;8.11;43.88;97924.56;5048239;28;20037;-63
2021/05/04 02:11:25;;;;;;;0.55;0.30;;;;;;;8.56;43.76;97986.75;5050164;28;20073;-62
2021/05/04 02:13:51;;;;;;;0.55;0.20;;;;;;;8.56;43.69;97976.91;5050441;28;20493;-61
2021/05/04 02:16:16;;;;;;;0.85;0.40;;;;;;;8.58;43.46;97990.09;5050375;28;20037;-62
2021/05/04 02:18:42;;;;;;;0.40;0.30;;;;;;;8.51;43.54;97959.72;5049325;28;20541;-61
2021/05/04 02:21:10;;;;;;;1.02;0.40;;;;;;;8.54;44.00;97999.41;5050278;28;20029;-61
2021/05/04 02:23:36;;;;;;;0.30;0.30;;;;;;;8.30;43.79;97939.53;5049144;28;20061;-61
2021/05/04 02:26:02;;;;;;;0.40;0.35;;;;;;;8.39;43.75;97946.59;5050065;28;20142;-62
2021/05/04 02:28:34;;;;;;;2.60;0.30;;;;;;;8.25;43.73;97915.16;5050456;28;20481;-62
2021/05/04 02:30:59;;;;;;;0.63;0.40;;;;;;;8.22;43.58;97912.81;5049980;28;20043;-62
2021/05/04 02:33:25;;;;;;;0.30;0.30;;;;;;;8.55;43.70;97969.06;5049814;28;20108;-62
2021/05/04 02:35:51;;;;;;;0.88;0.40;;;;;;;8.43;43.65;97952.44;5048791;28;20085;-61
2021/05/04 02:38:17;;;;;;;1.73;0.30;;;;;;;8.50;43.86;97972.19;5050255;28;20033;-62
2021/05/04 02:40:42;;;;;;;0.30;0.30;;;;;;;8.53;43.50;97971.06;5050036;28;20573;-61
2021/05/04 02:43:08;;;;;;;0.30;0.30;;;;;;;8.59;43.73;97965.09;5050002;28;20033;-61
2021/05/04 02:45:33;;;;;;;2.65;0.30;;;;;;;8.53;44.10;97971.06;5049592;28;20045;-62
2021/05/04 02:47:58;;;;;;;0.70;0.40;;;;;;;8.43;44.00;97963.13;5050231;28;20056;-61
2021/05/04 02:50:24;;;;;;;2.42;0.32;;;;;;;8.54;44.06;97965.53;5049710;28;20028;-61
2021/05/04 02:52:49;;;;;;;0.93;0.30;;;;;;;8.55;44.35;97974.41;5049627;28;20119;-61
2021/05/04 02:55:16;;;;;;;1.02;0.40;;;;;;;8.55;44.31;97983.22;5050262;28;20461;-62
2021/05/04 02:57:42;;;;;;;1.13;0.68;;;;;;;8.48;44.35;97956.31;5050084;28;20033;-61
2021/05/04 03:00:08;;;;;;;1.25;0.57;;;;;;;8.58;44.42;97974.06;5050206;28;20048;-61
2021/05/04 03:02:33;;;;;;;1.42;0.38;;;;;;;8.65;44.21;97977.78;5065026;28;20143;-62
2021/05/04 03:04:59;;;;;;;1.60;0.32;;;;;;;8.68;44.38;97982.84;5049874;28;20128;-61
2021/05/04 03:07:25;;;;;;;0.65;0.22;;;;;;;8.28;44.22;97923.69;5049925;28;20503;-61
2021/05/04 03:09:50;;;;;;;2.08;0.30;;;;;;;8.31;44.31;97927.88;5049917;28;20063;-62
2021/05/04 03:12:15;;;;;;;0.60;0.38;;;;;;;8.64;44.48;97988.63;5049405;28;20036;-62
2021/05/04 03:14:41;;;;;;;1.42;0.30;;;;;;;8.66;44.72;97982.13;5049733;28;20469;-61
2021/05/04 03:17:06;;;;;;;0.40;0.30;;;;;;;8.82;44.42;97976.06;5049624;28;20106;-63
2021/05/04 03:19:32;;;;;;;3.00;0.60;;;;;;;8.87;43.86;97962.22;5049621;28;20083;-62
2021/05/04 03:21:57;;;;;;;0.98;0.63;;;;;;;8.81;43.79;97929.03;5049479;28;20116;-62
2021/05/04 03:24:23;;;;;;;0.60;0.40;;;;;;;9.16;43.81;97972.56;5049215;28;20480;-62
2021/05/04 03:26:48;;;;;;;0.40;0.30;;;;;;;9.12;43.68;97959.69;5049633;28;20052;-62
2021/05/04 03:29:14;;;;;;;1.42;0.50;;;;;;;9.11;44.19;97985.56;5049363;28;20041;-62
2021/05/04 03:31:39;;;;;;;1.55;0.40;;;;;;;8.95;44.96;97978.31;5039075;28;20088;-63
2021/05/04 03:34:05;;;;;;;0.60;0.40;;;;;;;8.94;45.67;97992.66;5029494;28;20041;-61
2021/05/04 03:36:30;;;;;;;3.25;0.50;;;;;;;8.88;46.50;97996.78;5029337;28;20477;-63
2021/05/04 03:38:56;;;;;;;1.27;0.40;;;;;;;8.84;46.43;97995.44;5029502;28;20040;-62
2021/05/04 03:41:21;;;;;;;1.50;0.40;;;;;;;8.92;46.24;97981.28;5028551;28;20037;-62
2021/05/04 03:43:47;;;;;;;0.50;0.40;;;;;;;9.05;45.93;97964.84;5029539;28;20025;-61
2021/05/04 03:46:12;;;;;;;8.02;0.40;;;;;;;9.26;45.49;98007.13;5029624;28;20045;-62
2021/05/04 03:48:38;;;;;;;0.90;0.35;;;;;;;9.26;45.50;97993.78;5029757;28;20116;-62
2021/05/04 03:51:06;;;;;;;1.92;0.30;;;;;;;9.22;45.32;97978.25;5029140;28;20069;-63
2021/05/04 03:53:32;;;;;;;0.90;0.40;;;;;;;10.15;43.67;97971.09;5028975;28;20088;-63
2021/05/04 03:55:57;;;;;;;0.40;0.30;;;;;;;12.07;39.71;97972.97;5030513;28;20045;-62
2021/05/04 03:58:23;;;;;;;0.60;0.30;;;;;;;13.27;36.53;97895.19;5033177;28;20106;-62
2021/05/04 04:00:48;;;;;;;1.95;0.50;;;;;;;14.66;34.57;97943.44;5032971;28;20037;-62
2021/05/04 04:03:13;;;;;;;0.35;0.30;;;;;;;14.77;34.18;97950.19;5033267;28;20033;-62
2021/05/04 04:05:39;;;;;;;1.60;0.20;;;;;;;14.62;34.22;97950.25;5033273;28;20041;-62
2021/05/04 04:08:05;;;;;;;1.40;0.20;;;;;;;14.22;34.56;97964.25;5032908;28;20907;-62
2021/05/04 04:10:30;;;;;;;0.57;0.20;;;;;;;13.75;35.22;97944.97;5032903;28;20124;-63
2021/05/04 04:12:56;;;;;;;0.63;0.30;;;;;;;13.43;35.50;97957.81;5032698;28;20037;-63
2021/05/04 04:15:21;;;;;;;0.40;0.20;;;;;;;13.04;36.11;97954.41;5033319;28;20033;-62
2021/05/04 04:17:47;;;;;;;1.83;0.40;;;;;;;13.10;36.22;97963.59;5032511;28;20040;-62
2021/05/04 04:20:13;;;;;;;0.45;0.30;;;;;;;12.86;36.43;97936.00;5033022;28;20033;-62
2021/05/04 04:22:38;;;;;;;0.20;0.20;;;;;;;12.68;36.77;97941.75;5032670;28;20033;-62
2021/05/04 04:25:06;;;;;;;0.68;0.38;;;;;;;11.47;38.15;97865.44;5040049;28;20049;-62
2021/05/04 04:27:32;;;;;;;0.30;0.30;;;;;;;11.54;39.43;97938.75;5049218;28;20128;-63
2021/05/04 04:29:58;;;;;;;2.75;0.30;;;;;;;11.07;41.31;97951.22;5048532;28;20730;-61
2021/05/04 04:32:23;;;;;;;1.50;0.20;;;;;;;10.51;42.27;97913.75;5050203;28;20558;-61
2021/05/04 04:34:51;;;;;;;1.05;0.38;;;;;;;10.82;43.28;97955.81;5050452;28;20120;-62
2021/05/04 04:37:16;;;;;;;1.25;0.15;;;;;;;11.20;41.85;97958.69;5050841;28;20436;-62
2021/05/04 04:39:42;;;;;;;1.45;0.22;;;;;;;11.63;41.20;97951.09;5050460;28;20480;-61
2021/05/04 04:42:07;;;;;;;0.32;0.30;;;;;;;11.45;40.14;97881.72;5050724;28;20040;-62
2021/05/04 04:44:33;;;;;;;0.38;0.30;;;;;;;12.00;40.26;97948.69;5051847;28;20033;-61
2021/05/04 04:47:00;;;;;;;0.32;0.20;;;;;;;12.12;40.36;97949.13;5052006;28;20131;-61
2021/05/04 04:49:26;;;;;;;1.45;0.20;;;;;;;11.97;40.06;97943.69;5051716;28;20040;-61
2021/05/04 04:51:51;;;;;;;1.65;0.40;;;;;;;11.52;41.09;97956.03;5052294;28;20033;-62
2021/05/04 04:54:17;;;;;;;6.80;0.45;;;;;;;10.89;42.49;97952.28;5052453;28;20040;-62
2021/05/04 04:56:42;;;;;;;0.17;0.17;;;;;;;10.04;43.29;97884.88;5051739;28;20047;-61
2021/05/04 04:59:08;;;;;;;1.00;0.20;;;;;;;10.15;44.04;97961.25;5051658;28;20043;-62
2021/05/04 05:01:35;;;;;;;0.30;0.20;;;;;;;9.90;44.37;97944.34;5048916;28;20396;-60
2021/05/04 05:04:02;;;;;;;1.15;0.30;;;;;;;9.52;44.33;97931.44;5051695;28;20036;-61
2021/05/04 05:06:28;;;;;;;0.32;0.20;;;;;;;9.32;44.46;97890.84;5051441;28;20037;-62
2021/05/04 05:08:54;;;;;;;0.30;0.30;;;;;;;9.98;43.88;97946.19;5050297;28;20082;-61
2021/05/04 05:11:20;;;;;;;0.25;0.20;;;;;;;10.71;42.13;97944.47;5051604;28;20079;-61
2021/05/04 05:13:46;;;;;;;0.20;0.20;;;;;;;13.27;37.28;97922.06;5051323;28;20037;-62
2021/05/04 05:16:14;;;;;;;0.50;0.30;;;;;;;16.90;31.33;97924.91;5050703;28;20116;-62
2021/05/04 05:18:40;;;;;;;1.58;0.30;;;;;;;19.55;27.04;97882.84;5050672;28;20564;-62
2021/05/04 05:21:07;;;;;;;2.90;0.30;;;;;;;22.10;24.06;97907.25;5051088;28;20131;-61
2021/05/04 05:23:33;;;;;;;1.75;0.40;;;;;;;24.14;21.38;97905.03;5051284;28;20053;-62
2021/05/04 05:26:03;;;;;;;0.90;0.40;;;;;;;25.92;18.75;97891.97;5051053;28;20048;-62
2021/05/04 05:28:29;;;;;;;0.52;0.30;;;;;;;27.23;17.87;97903.38;5050862;28;20041;-63
2021/05/04 05:30:54;;;;;;;2.85;0.50;;;;;;;28.25;16.74;97910.53;5051216;28;20043;-61
2021/05/04 05:33:20;;;;;;;1.30;0.40;;;;;;;29.17;15.90;97898.91;5051189;28;20043;-63
2021/05/04 05:35:47;;;;;;;1.15;0.50;;;;;;;28.54;16.15;97904.22;5050748;28;20036;-59
2021/05/04 05:38:12;;;;;;;1.02;0.35;;;;;;;27.84;16.20;97889.63;5050905;28;20473;-59
2021/05/04 05:40:38;;;;;;;1.60;0.45;;;;;;;27.42;16.42;97878.03;5050735;28;20040;-60
2021/05/04 05:43:03;;;;;;;0.45;0.40;;;;;;;27.17;15.95;97876.22;5050611;28;20429;-61
2021/05/04 05:45:29;;;;;;;0.80;0.40;;;;;;;25.23;17.84;97878.34;5066329;28;20029;-60
2021/05/04 05:47:54;;;;;;;0.45;0.40;;;;;;;22.78;19.69;97893.59;5050692;28;20040;-60
2021/05/04 05:50:20;;;;;;;0.40;0.40;;;;;;;20.20;22.43;97892.16;5051244;28;20029;-60
2021/05/04 05:52:45;;;;;;;0.68;0.30;;;;;;;18.16;25.93;97910.16;5050721;28;20102;-61
2021/05/04 05:55:11;;;;;;;2.35;0.45;;;;;;;16.42;29.59;97926.00;5050557;28;20033;-62
2021/05/04 05:57:37;;;;;;;1.42;0.43;;;;;;;14.78;33.13;97943.75;5050358;28;20040;-60
2021/05/04 06:00:08;;;;;;;1.75;0.30;;;;;;;13.58;36.19;97953.25;5050613;28;20044;-61
2021/05/04 06:02:34;;;;;;;0.40;0.30;;;;;;;12.57;37.83;97948.38;5050180;28;20047;-60
2021/05/04 06:04:59;;;;;;;1.13;0.28;;;;;;;11.26;40.00;97850.84;5049575;28;20032;-60
2021/05/04 06:07:25;;;;;;;0.73;0.35;;;;;;;11.09;41.36;97940.31;5050179;28;20033;-61
2021/05/04 06:09:50;;;;;;;0.77;0.40;;;;;;;10.59;42.11;97937.78;5050577;28;20044;-62
2021/05/04 06:12:16;;;;;;;2.90;0.40;;;;;;;10.30;43.16;97942.66;5050212;28;20385;-61
2021/05/04 06:14:41;;;;;;;0.77;0.38;;;;;;;10.24;43.25;97931.81;5049961;28;20033;-60
2021/05/04 06:17:07;;;;;;;0.63;0.30;;;;;;;10.37;42.98;97934.81;5065776;28;20377;-62
2021/05/04 06:19:32;;;;;;;1.33;0.28;;;;;;;10.44;42.51;97933.16;5049236;28;20029;-60
2021/05/04 06:21:58;;;;;;;0.95;0.55;;;;;;;10.18;42.19;97893.19;5050167;28;20160;-62
2021/05/04 06:24:24;;;;;;;1.65;0.35;;;;;;;11.66;40.99;97922.28;5049938;28;20111;-63
2021/05/04 06:26:50;;;;;;;1.05;0.40;;;;;;;16.41;33.32;97930.59;5050457;28;20044;-62
2021/05/04 06:29:15;;;;;;;1.17;0.50;;;;;;;20.98;25.77;97913.81;5050126;28;20048;-60
2021/05/04 06:31:41;;;;;;;0.57;0.30;;;;;;;24.42;21.28;97914.00;5049903;28;20036;-61
2021/05/04 06:34:09;;;;;;;2.22;0.50;;;;;;;27.02;18.66;97896.31;5050042;28;20036;-61
2021/05/04 06:36:35;;;;;;;3.00;0.50;;;;;;;29.41;16.00;97898.94;5049692;28;20065;-60
2021/05/04 06:39:01;;;;;;;1.48;0.60;;;;;;;30.95;14.32;97907.84;5050171;28;20071;-61
2021/05/04 06:41:28;;;;;;;0.68;0.50;;;;;;;31.64;13.33;97907.00;5049944;28;20055;-62
2021/05/04 06:43:54;;;;;;;1.55;0.47;;;;;;;32.55;13.09;97905.44;5049417;28;20029;-64
2021/05/04 06:46:19;;;;;;;1.30;0.38;;;;;;;31.25;12.82;97913.09;5050194;28;20451;-62
2021/05/04 06:48:45;;;;;;;1.05;0.40;;;;;;;28.15;15.23;97903.19;5049882;28;20035;-62
2021/05/04 06:51:10;;;;;;;2.08;0.40;;;;;;;26.05;17.32;97898.88;5049657;28;20440;-60
2021/05/04 06:53:36;;;;;;;0.47;0.43;;;;;;;24.48;18.56;97907.47;5048768;28;20033;-63
2021/05/04 06:56:01;;;;;;;0.80;0.45;;;;;;;22.65;20.27;97907.59;5049959;28;20127;-62
2021/05/04 06:58:27;;;;;;;1.13;0.40;;;;;;;20.62;23.02;97918.41;5049824;28;20509;-60
2021/05/04 07:00:53;;;;;;;0.73;0.40;;;;;;;18.71;25.69;97924.94;5047980;28;20095;-64
2021/05/04 07:03:18;;;;;;;2.38;0.38;;;;;;;17.08;28.89;97968.34;5049081;28;20075;-61
2021/05/04 07:05:44;;;;;;;3.03;0.40;;;;;;;15.47;32.29;97968.19;5043525;28;20309;-61
2021/05/04 07:08:09;;;;;;;1.00;0.30;;;;;;;13.86;35.04;97963.28;5029894;28;20037;-61
2021/05/04 07:10:35;;;;;;;1.33;0.20;;;;;;;12.72;37.75;97976.06;5029329;28;20046;-61
2021/05/04 07:13:02;;;;;;;0.50;0.25;;;;;;;11.95;39.68;97975.22;5029608;28;20063;-61
2021/05/04 07:15:27;;;;;;;1.38;0.25;;;;;;;11.29;41.74;97968.34;5029456;28;20042;-61
2021/05/04 07:17:57;;;;;;;0.52;0.40;;;;;;;10.92;42.36;97983.22;5029467;28;20080;-61
2021/05/04 07:20:22;;;;;;;1.65;0.30;;;;;;;10.44;43.20;97946.53;5029906;28;20124;-64
2021/05/04 07:22:53;;;;;;;1.98;0.40;;;;;;;10.03;44.09;97920.63;5029438;28;20378;-62
2021/05/04 07:25:19;;;;;;;0.73;0.40;;;;;;;10.14;44.57;97975.63;5029775;28;20061;-62
2021/05/04 07:27:44;;;;;;;3.22;0.50;;;;;;;9.96;44.63;97969.59;5029163;28;20041;-61
2021/05/04 07:30:10;;;;;;;1.90;0.50;;;;;;;9.83;44.97;97936.13;5029248;28;20068;-63
2021/05/04 07:32:35;;;;;;;0.40;0.30;;;;;;;10.40;44.37;97969.28;5032940;28;20055;-60
2021/05/04 07:35:01;;;;;;;1.55;0.50;;;;;;;10.80;43.06;97942.59;5032879;28;20128;-62
2021/05/04 07:37:28;;;;;;;0.68;0.40;;;;;;;11.30;41.75;97961.16;5032693;28;20033;-61
2021/05/04 07:39:53;;;;;;;2.47;0.60;;;;;;;11.68;40.51;97965.81;5033634;28;20048;-61
2021/05/04 07:42:19;;;;;;;1.25;0.50;;;;;;;11.90;39.55;97931.97;5033002;28;20044;-60
2021/05/04 07:44:44;;;;;;;1.60;0.50;;;;;;;12.09;38.47;97943.28;5031617;28;20060;-61
2021/05/04 07:47:09;;;;;;;2.45;0.60;;;;;;;11.94;37.85;97892.25;5033552;28;20028;-61
2021/05/04 07:49:43;;;;;;;0.50;0.30;;;;;;;12.42;37.39;97954.56;5032828;28;20120;-61
2021/05/04 07:52:09;;;;;;;1.50;0.60;;;;;;;12.46;36.93;97957.72;5032411;28;20071;-60
2021/05/04 07:54:35;;;;;;;7.80;0.77;;;;;;;12.54;37.21;97967.53;5032683;28;20095;-60
2021/05/04 07:57:00;;;;;;;1.40;1.02;;;;;;;12.45;37.58;97962.25;5032829;28;20436;-62
2021/05/04 07:59:26;;;;;;;1.00;0.80;;;;;;;12.47;37.85;97984.34;5031430;28;20040;-61
2021/05/04 08:01:51;;;;;;;3.15;0.50;;;;;;;12.41;37.45;97987.78;5032573;28;20037;-61
2021/05/04 08:04:17;;;;;;;3.22;0.95;;;;;;;12.25;37.59;97956.56;5031756;28;20038;-60
2021/05/04 08:06:42;;;;;;;1.10;0.40;;;;;;;12.24;37.39;97962.09;5032444;28;20555;-61
2021/05/04 08:09:08;;;;;;;1.95;0.70;;;;;;;12.23;37.99;97971.16;5031058;28;20477;-62
2021/05/04 08:11:34;;;;;;;1.30;0.50;;;;;;;12.10;38.16;97963.72;5032742;28;20409;-63
2021/05/04 08:14:00;;;;;;;2.47;0.70;;;;;;;11.87;38.46;97962.69;5032738;28;20120;-61
2021/05/04 08:16:28;;;;;;;2.47;0.57;;;;;;;11.57;39.63;97992.00;5032689;28;20055;-60
2021/05/04 08:18:53;;;;;;;0.50;0.40;;;;;;;10.80;41.17;97936.41;5032347;28;20085;-61
2021/05/04 08:21:21;;;;;;;1.10;0.32;;;;;;;10.41;43.03;97999.53;5031174;28;20061;-62
2021/05/04 08:23:46;;;;;;;1.30;0.20;;;;;;;9.77;44.19;98009.81;5032473;28;20068;-61
2021/05/04 08:26:13;;;;;;;0.80;0.40;;;;;;;9.32;46.50;98021.69;5031774;28;20050;-61
2021/05/04 08:28:38;;;;;;;0.45;0.30;;;;;;;9.25;47.83;98007.28;5030532;28;20033;-61
2021/05/04 08:31:04;;;;;;;1.25;0.50;;;;;;;9.51;47.62;97993.88;5037539;28;20175;-61
2021/05/04 08:33:29;;;;;;;1.30;0.40;;;;;;;9.99;46.59;98007.50;5052780;28;20135;-64
2021/05/04 08:35:55;;;;;;;1.20;0.45;;;;;;;9.88;45.79;97949.84;5052621;28;20033;-61
2021/05/04 08:38:21;;;;;;;2.97;0.38;;;;;;;10.41;45.76;97997.69;5052020;28;20036;-61
2021/05/04 08:40:46;;;;;;;0.82;0.40;;;;;;;10.56;45.53;98005.88;5052097;28;20040;-62
2021/05/04 08:43:12;;;;;;;3.40;0.88;;;;;;;10.94;45.19;98008.00;5051064;28;20028;-64
2021/05/04 08:45:40;;;;;;;1.48;0.60;;;;;;;11.20;44.70;98012.25;5052346;28;20037;-60
2021/05/04 08:48:05;;;;;;;1.08;0.52;;;;;;;11.15;44.16;98015.44;5051975;28;20433;-61
2021/05/04 08:50:35;;;;;;;1.25;0.65;;;;;;;11.13;44.37;98005.94;5051800;28;20128;-60
2021/05/04 08:53:02;;;;;;;0.77;0.38;;;;;;;11.17;44.98;98008.06;5052117;28;20039;-63
2021/05/04 08:55:27;;;;;;;1.73;0.50;;;;;;;11.08;44.61;98019.00;5052473;28;20039;-61
2021/05/04 08:57:53;;;;;;;1.50;0.40;;;;;;;10.68;45.13;98016.22;5051559;28;20037;-61
2021/05/04 09:00:18;;;;;;;0.50;0.43;;;;;;;10.04;45.97;98020.38;5051524;28;20036;-61
2021/05/04 09:03:04;;;;;;;0.77;0.30;;;;;;;9.51;49.24;98033.94;5051877;28;20392;-61
2021/05/04 09:05:37;;;;;;;2.35;0.47;;;;;;;9.29;50.35;98054.06;5051778;28;20469;-65
2021/05/04 09:08:07;;;;;;;0.50;0.40;;;;;;;9.01;49.72;98043.53;5051740;28;20056;-63
2021/05/04 09:13:03;;;;;;;4.38;0.60;;;;;;;8.64;50.50;97967.28;5052205;28;20060;-61
2021/05/04 09:21:09;;;;;;;3.08;0.82;;;;;;;10.15;47.39;97974.59;5051633;28;20040;-59
2021/05/04 09:23:42;;;;;;;0.95;0.47;;;;;;;10.99;45.87;98037.75;5051179;28;20455;-57
2021/05/04 09:26:32;;;;;;;1.63;0.60;;;;;;;11.52;44.83;98039.13;5050953;28;20127;-62
2021/05/04 09:28:58;;;;;;;1.45;0.50;;;;;;;11.83;44.44;98039.13;5047188;28;20041;-61
2021/05/04 09:31:28;;;;;;;3.75;0.88;;;;;;;12.05;43.01;98039.34;5050083;28;20056;-61
2021/05/04 09:33:56;;;;;;;2.08;0.60;;;;;;;12.13;42.83;98049.19;5051450;28;20424;-61
2021/05/04 09:36:46;;;;;;;1.65;1.05;;;;;;;12.20;41.40;98037.56;5051275;28;20032;-60
2021/05/04 09:39:32;;;;;;;2.35;1.20;;;;;;;12.20;40.90;98042.13;5050755;28;20460;-61
2021/05/04 09:41:59;;;;;;;4.45;1.83;;;;;;;12.13;41.03;98054.56;5050625;28;20454;-62
2021/05/04 09:44:48;;;;;;;3.78;2.15;;;;;;;12.22;40.74;98045.47;5050960;28;20037;-62
2021/05/04 09:47:22;;;;;;;3.60;2.05;;;;;;;12.16;40.75;98044.31;5048226;28;20098;-63
2021/05/04 09:49:49;;;;;;;2.97;1.90;;;;;;;12.02;41.05;98074.56;5062258;28;20090;-65
2021/05/04 09:52:39;;;;;;;2.58;0.90;;;;;;;11.46;42.84;98087.03;5063868;28;20074;-64
2021/05/04 09:55:14;;;;;;;1.13;0.43;;;;;;;10.59;45.73;98091.19;5056649;28;20063;-61
2021/05/04 09:57:44;;;;;;;2.58;0.40;;;;;;;10.02;47.90;98100.78;5053823;28;20029;-63
2021/05/04 10:00:14;;;;;;;1.20;0.40;;;;;;;9.74;48.49;98101.00;5065201;28;20041;-62
2021/05/04 10:02:40;;;;;;;1.25;0.40;;;;;;;9.58;48.98;98101.75;5059939;28;20021;-63
2021/05/04 10:05:15;;;;;;;0.93;0.40;;;;;;;9.35;49.48;98109.50;5054278;28;20074;-62
2021/05/04 10:07:41;;;;;;;1.27;0.50;;;;;;;9.12;49.55;98119.88;5042944;28;20037;-63
2021/05/04 10:10:10;;;;;;;1.08;0.63;;;;;;;8.88;49.70;98113.34;5052821;28;20434;-65
2021/05/04 10:12:40;;;;;;;3.78;0.57;;;;;;;8.87;51.09;98107.19;5061142;28;20106;-63
2021/05/04 10:15:08;;;;;;;0.70;0.30;;;;;;;8.87;50.33;98091.19;5047864;28;20126;-63
2021/05/04 10:17:35;;;;;;;0.98;0.57;;;;;;;9.13;50.03;98105.53;5066680;28;20053;-63
2021/05/04 10:20:04;;;;;;;4.07;0.50;;;;;;;9.60;49.27;98114.97;5054672;28;20098;-60
2021/05/04 10:22:30;;;;;;;1.10;0.60;;;;;;;10.25;47.52;98099.31;5061624;28;20555;-63
2021/05/04 10:24:57;;;;;;;2.25;0.80;;;;;;;10.79;46.57;98090.84;5061755;28;20052;-63
2021/05/04 10:27:23;;;;;;;2.05;0.63;;;;;;;11.23;45.34;98100.31;5068734;28;20070;-62
2021/05/04 10:29:53;;;;;;;2.17;0.60;;;;;;;11.55;44.81;98106.59;5053438;28;20029;-63
2021/05/04 10:33:11;;;;;;;3.35;1.10;;;;;;;11.72;44.02;98095.81;5062952;28;20033;-62
2021/05/04 10:35:43;;;;;;;1.38;0.80;;;;;;;11.80;43.74;98103.81;5031216;28;20048;-62
2021/05/04 10:38:14;;;;;;;1.52;0.95;;;;;;;11.86;43.13;98103.13;5064481;28;20088;-60
2021/05/04 10:40:43;;;;;;;0.60;0.45;;;;;;;11.96;42.24;98112.81;5059500;28;20361;-62
2021/05/04 10:43:24;;;;;;;4.10;0.90;;;;;;;11.96;42.47;98113.66;5067808;28;20423;-63
2021/05/04 10:45:54;;;;;;;2.05;0.65;;;;;;;11.77;41.95;98114.88;5052868;28;20032;-62
2021/05/04 10:48:38;;;;;;;0.98;0.60;;;;;;;11.81;42.50;98129.59;5063105;28;20033;-64
2021/05/04 10:51:11;;;;;;;2.05;0.40;;;;;;;11.74;41.40;98131.31;5062764;28;20117;-64
2021/05/04 10:53:51;;;;;;;2.78;0.30;;;;;;;11.82;42.14;98136.69;5052941;28;20036;-63
2021/05/04 10:56:30;;;;;;;1.23;0.30;;;;;;;11.74;42.11;98131.31;5059224;28;20036;-65
2021/05/04 10:58:55;;;;;;;0.35;0.30;;;;;;;11.62;42.07;98134.41;5049836;28;20033;-64
2021/05/04 11:01:21;;;;;;;0.30;0.20;;;;;;;11.43;43.19;98138.28;5039784;28;20037;-64
2021/05/04 11:03:51;;;;;;;1.85;0.30;;;;;;;11.31;43.53;98118.22;5041081;28;20116;-65
2021/05/04 11:06:26;;;;;;;2.55;0.30;;;;;;;11.29;43.03;98131.78;5063166;28;20068;-63
2021/05/04 11:08:51;;;;;;;1.15;0.28;;;;;;;11.38;43.19;98135.28;5064493;28;20220;-63
2021/05/04 11:11:37;;;;;;;2.17;0.55;;;;;;;11.55;42.88;98125.34;5058583;28;20392;-64
2021/05/04 11:14:16;;;;;;;0.45;0.45;;;;;;;11.76;42.37;98140.88;5058050;28;20055;-64
2021/05/04 11:16:47;;;;;;;1.30;0.57;;;;;;;11.51;43.00;98155.38;5063049;28;20439;-63
2021/05/04 11:19:18;;;;;;;1.40;0.63;;;;;;;11.22;44.12;98165.63;5067656;28;20070;-64
2021/05/04 11:21:52;;;;;;;0.95;0.50;;;;;;;10.96;45.88;98147.91;5055439;28;20041;-64
2021/05/04 11:24:22;;;;;;;0.30;0.30;;;;;;;10.83;45.55;98172.50;5066699;28;20110;-64
2021/05/04 11:26:56;;;;;;;0.28;0.28;;;;;;;10.96;44.76;98150.56;5063402;28;20048;-64
2021/05/04 11:29:43;;;;;;;2.13;0.60;;;;;;;11.00;44.20;98151.91;5057313;28;20040;-65
2021/05/04 11:32:37;;;;;;;2.00;0.65;;;;;;;10.94;43.55;98152.59;5043150;28;20036;-65
2021/05/04 11:35:04;;;;;;;1.23;0.40;;;;;;;10.86;43.78;98145.38;5062456;28;20051;-65
2021/05/04 11:37:32;;;;;;;1.23;0.40;;;;;;;10.83;43.79;98151.06;5053959;28;20033;-65
2021/05/04 11:40:16;;;;;;;0.60;0.40;;;;;;;10.70;44.29;98151.56;5057090;28;20047;-63
2021/05/04 11:43:01;;;;;;;3.78;0.68;;;;;;;10.69;45.03;98139.19;5071118;28;20082;-64
2021/05/04 11:45:29;;;;;;;0.43;0.40;;;;;;;10.51;45.23;98152.72;5056740;28;20040;-64
2021/05/04 11:47:57;;;;;;;2.15;0.63;;;;;;;10.25;45.88;98158.16;5039758;28;20028;-62